This demonstration page uses our WeatherBlox Daily Observations layout. Learn more.

39.29038, -76.61219

Hourly Observations for January 12, 2019

Temp ( °F °C ) Dew Point ( °F °C ) Humidity (%) Winds ( mph kmh ) Pressure ( in mb ) Visibility ( mi km ) Precip ( " mm )
12:54 am 00:54 undefined 32 0 12 -11.1 43 43 undefined N/A 30.45 1031 N/A 0 0
1:54 am 01:54 undefined 32 0 14 -10 47 47 undefined N/A 30.45 1031 N/A 0 0
2:54 am 02:54 undefined 31 -0.6 14 -10 49 49 undefined N/A 30.48 1032 N/A 0 0
3:54 am 03:54 undefined 31 -0.6 10 -12.2 42 42 undefined N/A 30.48 1032 N/A 0 0
4:54 am 04:54 undefined 30 -1.1 9 -12.8 41 41 undefined N/A 30.48 1032 N/A 0 0
5:54 am 05:54 undefined 30 -1.1 5 -15 34 34 undefined N/A 30.5 1033 N/A 0 0
6:54 am 06:54 undefined 30 -1.1 6 -14.4 36 36 undefined N/A 30.5 1033 N/A 0 0
7:54 am 07:54 undefined 30 -1.1 5 -15 34 34 undefined N/A 30.5 1033 N/A 0 0
8:54 am 08:54 undefined 30 -1.1 10 -12.2 43 43 undefined N/A 30.53 1034 N/A 0 0
9:54 am 09:54 undefined 32 0 12 -11.1 43 43 undefined N/A 30.59 1036 N/A 0 0
10:54 am 10:54 undefined 34 1.1 14 -10 44 44 undefined N/A 30.59 1036 N/A 0 0
11:54 am 11:54 undefined 34 1.1 14 -10 44 44 undefined N/A 30.53 1034 N/A 0 0
12:54 pm 12:54 undefined 34 1.1 15 -9.4 46 46 undefined N/A 30.5 1033 N/A 0 0
1:54 pm 13:54 undefined 34 1.1 13 -10.6 42 42 undefined N/A 30.5 1033 N/A 0 0
2:54 pm 14:54 undefined 34 1.1 15 -9.4 46 46 undefined N/A 30.5 1033 N/A 0 0
3:54 pm 15:54 undefined 33 0.6 15 -9.4 47 47 undefined N/A 30.48 1032 N/A 0 0
4:54 pm 16:54 undefined 33 0.6 17 -8.3 52 52 undefined N/A 30.48 1032 N/A 0 0
5:54 pm 17:54 undefined 30 -1.1 25 -3.9 82 82 undefined N/A 30.48 1032 N/A 0 0
6:54 pm 18:54 undefined 30 -1.1 25 -3.9 82 82 undefined N/A 30.5 1033 N/A 0.01 0.254
7:54 pm 19:54 undefined 30 -1.1 26 -3.3 85 85 undefined N/A 30.48 1032 N/A 0.02 0.508
8:54 pm 20:54 undefined 30 -1.1 26 -3.3 85 85 undefined N/A 30.48 1032 N/A 0.05 1.27
9:54 pm 21:54 undefined 29 -1.7 26 -3.3 89 89 undefined N/A 30.48 1032 N/A 0.04 1.016
10:54 pm 22:54 undefined 29 -1.7 26 -3.3 89 89 undefined N/A 30.48 1032 N/A 0.04 1.016
11:54 pm 23:54 undefined 29 -1.7 25 -3.9 85 85 undefined N/A 30.48 1032 N/A 0.01 0.254

Powered by AerisWeather